Chatfield, Ohio
Current Conditions -  °F | °C
As of 10:52 AM on Friday 28 Nov 2014 (Local Time) from KMFD Reporting Station
Overcast Overcast  
Wind Chill: 16°   Ceiling: 1900
Heat Index: 24°   Visibility: 10mi
Dew Point: 17°   Wind: 7mph
Humidity: 75%   Direction: 190°S
Pressure: 30.31"   Gusts: NA
Location:  40.95°N, 82.94°W
Report Text: KMFD 281552Z 19006KT 10SM BKN019 OVC100 M04/M08 A3031 RMK AO2 SNB02E21 SLP282 P0000 T10441083
Loading
Personal Weather Stations






























Interactive Weather Map New forecast layout! Learn more

10-Day Weather Forecast

Advertisements
Track Severe Weather on mobile